Time;durP1;ratioP1;P1;durP2;ratioP2;P2;SDS_P1;SDS_P2;PMS_P1;PMS_P2;Temp;Humidity;BMP_temperature;BMP_pressure;BME280_temperature;BME280_humidity;BME280_pressure;Samples;Min_cycle;Max_cycle;Signal;HPM_P1;HPM_P2
2021/08/24 00:01:18;;;;;;;44.88;28.05;;;17.80;97.90;;;;;;5095443;28;20370;-74
2021/08/24 00:03:44;;;;;;;45.75;28.90;;;17.80;97.90;;;;;;5095414;28;20076;-74
2021/08/24 00:06:11;;;;;;;49.13;29.27;;;17.70;98.00;;;;;;5095463;28;20105;-74
2021/08/24 00:08:40;;;;;;;47.42;29.55;;;17.70;98.10;;;;;;5095232;28;20016;-74
2021/08/24 00:11:06;;;;;;;52.67;29.25;;;17.70;98.10;;;;;;5095528;28;20020;-74
2021/08/24 00:13:32;;;;;;;47.05;29.55;;;17.70;98.10;;;;;;5095039;28;20390;-74
2021/08/24 00:15:58;;;;;;;54.55;31.10;;;17.70;98.10;;;;;;5095262;28;20036;-74
2021/08/24 00:18:24;;;;;;;52.17;30.45;;;17.60;98.20;;;;;;5095284;28;20031;-74
2021/08/24 00:20:51;;;;;;;49.25;31.08;;;17.60;98.20;;;;;;5095015;28;20024;-73
2021/08/24 00:23:20;;;;;;;58.67;33.45;;;17.60;98.20;;;;;;5095612;28;20024;-73
2021/08/24 00:25:51;;;;;;;52.50;32.80;;;17.60;98.20;;;;;;5095012;28;20017;-73
2021/08/24 00:28:17;;;;;;;58.78;34.70;;;17.60;98.20;;;;;;5094897;28;20024;-73
2021/08/24 00:30:43;;;;;;;58.20;34.25;;;17.50;98.20;;;;;;5094749;28;20048;-74
2021/08/24 00:33:09;;;;;;;55.30;33.15;;;17.50;98.20;;;;;;5095439;28;20024;-74
2021/08/24 00:35:39;;;;;;;53.53;32.67;;;17.50;98.20;;;;;;5094468;28;20103;-74
2021/08/24 00:38:05;;;;;;;51.30;32.42;;;17.50;98.40;;;;;;5094616;28;20052;-74
2021/08/24 00:40:31;;;;;;;53.70;33.00;;;17.50;98.40;;;;;;5094553;28;20071;-74
2021/08/24 00:42:57;;;;;;;57.45;33.65;;;17.50;98.40;;;;;;5094417;28;20027;-74
2021/08/24 00:45:23;;;;;;;60.10;35.08;;;17.40;98.50;;;;;;5094722;28;20374;-74
2021/08/24 00:47:50;;;;;;;54.72;34.92;;;17.40;98.50;;;;;;5094863;28;20031;-74
2021/08/24 00:50:29;;;;;;;61.60;34.92;;;17.40;98.50;;;;;;5094426;28;20024;-74
2021/08/24 00:52:59;;;;;;;61.35;33.70;;;17.40;98.50;;;;;;5094531;28;20031;-74
2021/08/24 00:55:26;;;;;;;60.60;34.90;;;17.30;98.60;;;;;;5094260;28;20024;-74
2021/08/24 00:57:58;;;;;;;57.72;34.17;;;17.30;98.60;;;;;;5094259;28;20521;-74
2021/08/24 01:00:34;;;;;;;52.95;32.45;;;17.30;98.80;;;;;;5094788;28;20470;-74
2021/08/24 01:03:09;;;;;;;49.10;31.52;;;17.30;98.90;;;;;;5094472;28;20047;-74
2021/08/24 01:05:37;;;;;;;51.13;32.00;;;17.30;98.90;;;;;;5094507;28;20020;-74
2021/08/24 01:08:36;;;;;;;47.95;30.02;;;17.20;98.90;;;;;;5094251;28;20020;-74
2021/08/24 01:11:11;;;;;;;54.22;31.73;;;17.20;98.90;;;;;;5080733;28;20390;-74
2021/08/24 01:14:00;;;;;;;52.42;31.67;;;17.20;99.10;;;;;;5092819;28;20031;-74
2021/08/24 01:16:56;;;;;;;49.97;30.10;;;17.10;99.10;;;;;;5074292;28;20031;-74
2021/08/24 01:20:14;;;;;;;51.55;30.23;;;17.10;99.00;;;;;;5067947;28;20452;-74
2021/08/24 01:23:07;;;;;;;49.13;29.65;;;17.10;99.10;;;;;;5011876;28;20049;-74
2021/08/24 01:25:36;;;;;;;49.45;30.05;;;17.00;99.20;;;;;;5072248;28;20048;-74
2021/08/24 01:28:10;;;;;;;49.72;30.77;;;17.00;99.10;;;;;;5074093;28;20044;-74
2021/08/24 01:30:58;;;;;;;49.60;30.58;;;17.00;99.20;;;;;;5073040;28;20390;-74
2021/08/24 01:33:40;;;;;;;50.10;30.38;;;17.00;99.20;;;;;;5047479;28;20123;-74
2021/08/24 01:36:14;;;;;;;48.53;29.75;;;17.00;99.20;;;;;;5094307;28;20462;-74
2021/08/24 01:38:49;;;;;;;53.00;31.15;;;16.90;99.20;;;;;;5094365;28;20028;-74
2021/08/24 01:41:20;;;;;;;46.10;28.75;;;16.90;99.20;;;;;;5093589;28;20043;-74
2021/08/24 01:43:54;;;;;;;50.97;31.10;;;16.90;99.20;;;;;;5092532;28;20020;-74
2021/08/24 01:46:41;;;;;;;45.35;29.70;;;16.90;99.20;;;;;;5093870;28;20048;-74
2021/08/24 01:49:07;;;;;;;50.40;30.95;;;17.00;99.20;;;;;;5093974;28;20532;-74
2021/08/24 01:51:44;;;;;;;49.30;30.08;;;17.00;99.40;;;;;;5093575;28;20028;-74
2021/08/24 01:54:23;;;;;;;49.35;31.17;;;16.90;99.20;;;;;;5093579;28;20107;-74
2021/08/24 01:56:51;;;;;;;55.70;30.63;;;17.00;99.20;;;;;;5093774;28;20036;-74
2021/08/24 01:59:35;;;;;;;47.45;29.77;;;17.00;99.20;;;;;;5093458;28;20063;-74
2021/08/24 02:02:11;;;;;;;49.92;30.48;;;16.90;99.20;;;;;;5095897;28;20095;-74
2021/08/24 02:04:44;;;;;;;51.50;30.48;;;16.90;99.20;;;;;;5098011;28;20390;-74
2021/08/24 02:07:10;;;;;;;50.97;31.02;;;16.90;99.20;;;;;;5097566;28;20103;-74
2021/08/24 02:09:41;;;;;;;50.33;30.30;;;16.90;99.30;;;;;;5098115;28;20030;-74
2021/08/24 02:12:09;;;;;;;52.17;31.60;;;16.90;99.30;;;;;;5097923;28;20034;-74
2021/08/24 02:14:38;;;;;;;48.75;30.00;;;16.90;99.30;;;;;;5097506;28;20481;-74
2021/08/24 02:17:06;;;;;;;48.42;28.92;;;16.90;99.40;;;;;;5097806;28;20051;-74
2021/08/24 02:19:46;;;;;;;45.97;29.38;;;16.90;99.50;;;;;;5097378;28;20031;-74
2021/08/24 02:22:19;;;;;;;48.85;32.28;;;16.90;99.40;;;;;;5097714;28;20020;-74
2021/08/24 02:24:51;;;;;;;45.28;29.83;;;16.90;99.30;;;;;;5097967;28;20031;-74
2021/08/24 02:27:22;;;;;;;51.40;31.33;;;16.90;99.40;;;;;;5097433;28;20046;-74
2021/08/24 02:29:48;;;;;;;48.88;30.65;;;16.90;99.40;;;;;;5097504;28;20036;-74
2021/08/24 02:32:31;;;;;;;55.15;31.73;;;16.90;99.30;;;;;;5097200;28;20034;-73
2021/08/24 02:35:15;;;;;;;45.95;29.70;;;16.80;99.40;;;;;;5097212;28;20421;-73
2021/08/24 02:37:53;;;;;;;51.28;29.80;;;16.80;99.40;;;;;;5096926;28;20028;-74
2021/08/24 02:40:35;;;;;;;47.40;30.23;;;16.80;99.60;;;;;;5096809;28;20391;-74
2021/08/24 02:43:18;;;;;;;50.83;29.90;;;16.70;99.60;;;;;;5097382;28;20020;-74
2021/08/24 02:45:53;;;;;;;48.55;30.60;;;16.80;99.60;;;;;;5096878;28;20410;-74
2021/08/24 02:48:20;;;;;;;47.88;29.05;;;16.70;99.60;;;;;;5097071;28;20016;-74
2021/08/24 02:50:47;;;;;;;47.17;29.50;;;16.70;99.70;;;;;;5096741;28;20034;-74
2021/08/24 02:53:15;;;;;;;46.95;29.58;;;16.70;99.70;;;;;;5096629;28;20032;-74
2021/08/24 02:55:41;;;;;;;47.85;28.80;;;16.70;99.60;;;;;;5096594;28;20020;-74
2021/08/24 02:58:07;;;;;;;46.72;29.45;;;16.70;99.60;;;;;;5096743;28;20020;-74
2021/08/24 03:00:33;;;;;;;50.50;31.55;;;16.60;99.60;;;;;;5096780;28;20390;-74
2021/08/24 03:02:58;;;;;;;46.60;29.40;;;16.60;99.60;;;;;;5096528;28;20024;-74
2021/08/24 03:05:24;;;;;;;46.38;29.00;;;16.70;99.60;;;;;;5096551;28;20027;-74
2021/08/24 03:07:50;;;;;;;50.97;30.48;;;16.60;99.50;;;;;;5096288;28;20035;-74
2021/08/24 03:10:19;;;;;;;45.10;28.55;;;16.70;99.70;;;;;;5096445;28;20474;-74
2021/08/24 03:13:16;;;;;;;48.80;29.40;;;16.60;99.80;;;;;;5095581;28;20032;-74
2021/08/24 03:16:08;;;;;;;47.03;28.08;;;16.60;99.70;;;;;;5096618;28;20103;-74
2021/08/24 03:19:17;;;;;;;50.05;30.25;;;16.60;99.80;;;;;;5096775;28;20035;-74
2021/08/24 03:21:45;;;;;;;53.45;30.50;;;16.60;99.70;;;;;;5067560;28;20119;-74
2021/08/24 03:24:13;;;;;;;53.55;30.55;;;16.60;99.70;;;;;;5096507;28;20024;-74
2021/08/24 03:26:42;;;;;;;50.25;31.35;;;16.60;99.80;;;;;;5096086;28;20031;-74
2021/08/24 03:29:09;;;;;;;47.03;28.40;;;16.70;99.80;;;;;;5095495;28;20047;-74
2021/08/24 03:31:37;;;;;;;49.80;30.02;;;16.70;99.80;;;;;;5095536;28;20048;-74
2021/08/24 03:34:03;;;;;;;48.85;29.90;;;16.70;99.80;;;;;;5095750;28;20028;-74
2021/08/24 03:36:29;;;;;;;51.65;31.63;;;16.80;99.90;;;;;;5096197;28;20378;-74
2021/08/24 03:38:54;;;;;;;46.58;29.70;;;16.80;99.90;;;;;;5094490;28;20077;-74
2021/08/24 03:41:21;;;;;;;50.15;29.48;;;16.80;99.90;;;;;;5077833;28;20048;-74
2021/08/24 03:43:47;;;;;;;46.97;29.52;;;16.90;99.90;;;;;;5095943;28;20509;-74
2021/08/24 03:46:13;;;;;;;50.00;30.33;;;16.90;99.80;;;;;;5094197;28;20033;-74
2021/08/24 03:48:38;;;;;;;50.35;29.38;;;17.00;99.70;;;;;;5095829;28;20475;-74
2021/08/24 03:51:04;;;;;;;45.78;28.98;;;17.10;99.80;;;;;;5111035;28;20031;-74
2021/08/24 03:53:33;;;;;;;44.50;28.13;;;17.00;99.80;;;;;;5116318;28;20026;-74
2021/08/24 03:55:59;;;;;;;44.72;27.70;;;17.10;99.90;;;;;;5116576;28;20024;-74
2021/08/24 03:58:25;;;;;;;47.83;29.48;;;17.20;99.90;;;;;;5102068;28;20031;-74
2021/08/24 04:00:53;;;;;;;50.35;29.33;;;17.20;99.90;;;;;;5095443;28;20024;-74
2021/08/24 04:03:19;;;;;;;45.15;28.55;;;17.20;99.90;;;;;;5095308;28;20095;-74
2021/08/24 04:05:44;;;;;;;42.40;27.00;;;17.30;99.80;;;;;;5095515;28;20120;-74
2021/08/24 04:08:10;;;;;;;45.45;27.70;;;17.40;99.60;;;;;;5095328;28;20024;-74
2021/08/24 04:10:37;;;;;;;43.42;26.77;;;17.40;99.40;;;;;;5093801;28;20051;-74
2021/08/24 04:13:03;;;;;;;44.05;26.88;;;17.50;99.20;;;;;;5094916;28;20119;-74
2021/08/24 04:15:28;;;;;;;48.75;28.35;;;17.60;99.20;;;;;;5093636;28;20119;-75
2021/08/24 04:17:54;;;;;;;40.38;25.52;;;17.70;99.10;;;;;;5095398;28;20028;-74
2021/08/24 04:20:20;;;;;;;47.67;28.85;;;17.70;99.10;;;;;;5093893;28;20028;-74
2021/08/24 04:22:48;;;;;;;51.00;27.65;;;17.80;98.80;;;;;;5094654;28;20467;-74
2021/08/24 04:25:16;;;;;;;46.05;27.80;;;17.80;98.80;;;;;;5093223;28;20481;-75
2021/08/24 04:27:43;;;;;;;45.03;27.02;;;17.90;98.80;;;;;;5095257;28;20035;-74
2021/08/24 04:30:09;;;;;;;44.80;28.08;;;17.90;98.80;;;;;;5094398;28;20032;-74
2021/08/24 04:32:37;;;;;;;41.72;26.27;;;17.90;98.80;;;;;;5093795;28;20043;-74
2021/08/24 04:35:04;;;;;;;43.53;27.27;;;18.00;98.90;;;;;;5094537;28;20024;-74
2021/08/24 04:37:30;;;;;;;41.72;27.67;;;18.00;98.80;;;;;;5094676;28;20024;-75
2021/08/24 04:39:56;;;;;;;46.42;26.05;;;18.10;98.70;;;;;;5093486;28;20050;-75
2021/08/24 04:42:22;;;;;;;39.47;25.73;;;18.20;98.80;;;;;;5093517;28;20111;-75
2021/08/24 04:44:47;;;;;;;40.70;25.98;;;18.20;98.90;;;;;;5094582;28;20051;-75
2021/08/24 04:47:15;;;;;;;43.58;25.75;;;18.30;98.90;;;;;;5094355;28;20024;-75
2021/08/24 04:49:40;;;;;;;38.58;23.45;;;18.40;98.60;;;;;;5094565;28;20020;-75
2021/08/24 04:52:06;;;;;;;36.33;22.65;;;18.50;98.40;;;;;;5093217;28;20024;-75
2021/08/24 04:54:36;;;;;;;34.63;20.88;;;18.60;98.00;;;;;;5094738;28;20059;-75
2021/08/24 04:57:03;;;;;;;;;;;18.60;97.60;;;;;;5095044;28;20352;-75
2021/08/24 04:59:31;;;;;;;26.70;16.92;;;18.70;97.40;;;;;;5094208;28;19908;-75
2021/08/24 05:01:57;;;;;;;25.45;16.27;;;18.80;96.50;;;;;;5093290;28;20107;-75
2021/08/24 05:04:23;;;;;;;25.48;16.27;;;18.90;96.00;;;;;;5094521;28;20024;-75
2021/08/24 05:06:50;;;;;;;25.65;17.17;;;19.00;95.60;;;;;;5094372;28;20099;-75
2021/08/24 05:09:16;;;;;;;23.80;15.88;;;19.10;95.10;;;;;;5094511;28;20016;-76
2021/08/24 05:11:41;;;;;;;26.05;16.60;;;19.30;94.40;;;;;;5093995;28;20059;-75
2021/08/24 05:14:07;;;;;;;27.02;16.55;;;19.40;94.20;;;;;;5093884;28;20032;-75
2021/08/24 05:16:35;;;;;;;32.58;15.38;;;19.50;94.10;;;;;;5093057;28;20455;-75
2021/08/24 05:19:01;;;;;;;25.60;17.50;;;19.50;94.40;;;;;;5092480;28;20036;-75
2021/08/24 05:21:26;;;;;;;29.60;19.05;;;19.70;94.30;;;;;;5094045;28;20039;-75
2021/08/24 05:23:52;;;;;;;25.50;19.05;;;19.70;93.30;;;;;;5094139;28;20458;-75
2021/08/24 05:26:19;;;;;;;24.50;17.88;;;19.80;93.40;;;;;;5093985;28;20067;-75
2021/08/24 05:28:46;;;;;;;27.40;17.95;;;19.80;93.40;;;;;;5092647;28;20092;-76
2021/08/24 05:31:12;;;;;;;29.23;17.23;;;20.00;93.00;;;;;;5093964;28;20103;-75
2021/08/24 05:33:39;;;;;;;25.75;18.10;;;20.00;93.00;;;;;;5093835;28;20039;-75
2021/08/24 05:36:05;;;;;;;29.30;19.75;;;20.10;92.10;;;;;;5093869;28;20055;-75
2021/08/24 05:38:33;;;;;;;35.60;24.13;;;20.20;91.60;;;;;;5092507;28;20405;-75
2021/08/24 05:40:59;;;;;;;48.78;28.60;;;20.30;91.60;;;;;;5092484;28;20067;-75
2021/08/24 05:43:26;;;;;;;46.70;25.80;;;20.30;90.70;;;;;;5092600;28;20435;-75
2021/08/24 05:46:04;;;;;;;40.95;23.27;;;20.40;90.80;;;;;;5093788;28;20051;-75
2021/08/24 05:48:31;;;;;;;48.10;24.83;;;20.60;90.60;;;;;;5094084;28;20016;-75
2021/08/24 05:50:57;;;;;;;44.83;24.65;;;20.60;89.80;;;;;;5092793;28;20024;-76
2021/08/24 05:53:23;;;;;;;50.03;25.90;;;20.70;89.40;;;;;;5093974;28;20397;-75
2021/08/24 05:55:50;;;;;;;47.92;25.60;;;20.80;87.70;;;;;;5092606;28;20078;-75
2021/08/24 05:58:16;;;;;;;43.75;23.10;;;20.90;87.20;;;;;;5093290;28;20032;-75
2021/08/24 06:00:43;;;;;;;35.97;19.85;;;20.90;86.80;;;;;;5092095;28;20028;-75
2021/08/24 06:03:09;;;;;;;31.60;18.15;;;21.10;86.20;;;;;;5092741;28;20025;-75
2021/08/24 06:05:42;;;;;;;30.00;16.00;;;21.20;85.10;;;;;;5092093;28;20031;-75
2021/08/24 06:08:08;;;;;;;26.13;14.80;;;21.30;83.80;;;;;;5093628;28;20024;-76
2021/08/24 06:10:38;;;;;;;25.30;13.27;;;21.40;82.60;;;;;;5093012;28;20400;-76
2021/08/24 06:13:05;;;;;;;;;;;21.50;81.90;;;;;;5093736;28;20073;-76
2021/08/24 06:15:31;;;;;;;20.77;11.70;;;21.40;81.20;;;;;;5093655;28;19982;-75
2021/08/24 06:17:56;;;;;;;23.75;12.30;;;21.50;81.90;;;;;;5093912;28;20024;-75
2021/08/24 06:20:23;;;;;;;14.90;10.00;;;21.60;81.20;;;;;;5093701;28;20370;-75
2021/08/24 06:22:50;;;;;;;14.93;8.63;;;21.70;80.40;;;;;;5093684;28;20099;-74
2021/08/24 06:25:19;;;;;;;16.42;8.50;;;21.80;78.10;;;;;;5093478;28;20074;-76
2021/08/24 06:27:46;;;;;;;13.52;8.45;;;21.80;77.90;;;;;;5093624;28;20020;-75
2021/08/24 06:30:12;;;;;;;13.43;8.77;;;21.90;77.20;;;;;;5093050;28;20029;-75
2021/08/24 06:32:44;;;;;;;11.70;7.60;;;22.10;75.10;;;;;;5093114;28;20094;-75
2021/08/24 06:35:10;;;;;;;16.50;7.88;;;22.10;75.10;;;;;;5091863;28;20413;-76
2021/08/24 06:37:37;;;;;;;29.23;13.75;;;22.10;75.60;;;;;;5093148;28;20035;-75
2021/08/24 06:40:05;;;;;;;50.75;23.67;;;22.10;75.80;;;;;;5092087;28;20571;-75
2021/08/24 06:42:43;;;;;;;48.67;22.20;;;22.20;73.10;;;;;;5075557;28;20388;-75
2021/08/24 06:45:14;;;;;;;95.75;41.90;;;22.30;73.40;;;;;;5093250;28;20024;-76
2021/08/24 06:47:40;;;;;;;133.10;57.83;;;22.30;74.40;;;;;;5094359;28;20476;-76
2021/08/24 06:50:07;;;;;;;92.63;41.35;;;22.40;74.40;;;;;;5096861;28;20037;-76
2021/08/24 06:52:34;;;;;;;168.23;68.07;;;22.50;74.30;;;;;;5097020;28;20024;-75
2021/08/24 06:55:00;;;;;;;149.60;64.80;;;22.50;73.40;;;;;;5096066;28;20024;-77
2021/08/24 06:57:25;;;;;;;163.43;72.45;;;22.60;72.10;;;;;;5095902;28;20375;-79
2021/08/24 06:59:51;;;;;;;132.00;56.70;;;22.70;70.50;;;;;;5096444;28;20028;-76
2021/08/24 07:02:17;;;;;;;129.65;58.13;;;22.70;70.40;;;;;;5096223;28;20387;-78
2021/08/24 07:04:47;;;;;;;134.80;55.80;;;22.80;71.00;;;;;;5094195;28;20028;-77
2021/08/24 07:07:13;;;;;;;141.50;58.15;;;22.80;70.90;;;;;;5103216;28;20046;-76
2021/08/24 07:09:39;;;;;;;127.38;53.75;;;22.80;71.20;;;;;;5097228;28;20036;-76
2021/08/24 07:12:05;;;;;;;117.85;47.53;;;22.90;71.00;;;;;;5112916;28;20031;-78
2021/08/24 07:14:31;;;;;;;108.57;43.83;;;22.90;70.80;;;;;;5112765;28;20381;-77
2021/08/24 07:16:56;;;;;;;136.80;51.70;;;23.00;70.60;;;;;;5094725;28;20104;-76
2021/08/24 07:19:22;;;;;;;144.80;56.13;;;23.00;70.30;;;;;;5096478;28;20024;-75
2021/08/24 07:21:48;;;;;;;114.63;46.45;;;23.00;70.40;;;;;;5095852;28;20382;-75
2021/08/24 07:24:14;;;;;;;91.63;37.58;;;23.20;70.00;;;;;;5094869;28;20056;-81
2021/08/24 07:26:39;;;;;;;76.55;31.67;;;23.20;68.90;;;;;;5094331;28;20054;-76
2021/08/24 17:57:43;;;;;;;12.75;8.45;;;21.20;67.00;;;;;;5131390;27;20387;-71
2021/08/24 18:00:10;;;;;;;10.43;7.97;;;20.60;68.70;;;;;;5132553;28;20510;-71
2021/08/24 18:02:35;;;;;;;13.15;7.68;;;20.50;69.80;;;;;;5132067;28;20023;-72
2021/08/24 18:05:01;;;;;;;9.93;7.80;;;20.50;70.70;;;;;;5115307;28;20034;-76
2021/08/24 18:07:27;;;;;;;14.57;6.82;;;20.60;71.30;;;;;;5110002;28;20489;-76
2021/08/24 18:09:52;;;;;;;11.25;7.18;;;20.60;71.80;;;;;;5112771;28;20069;-74
2021/08/24 18:12:18;;;;;;;10.27;6.97;;;20.60;71.80;;;;;;5111541;28;20038;-75
2021/08/24 18:14:44;;;;;;;11.65;7.63;;;20.60;72.10;;;;;;5111235;28;20027;-75
2021/08/24 18:17:11;;;;;;;12.85;7.32;;;20.60;72.20;;;;;;5111047;28;20032;-74
2021/08/24 18:19:37;;;;;;;12.63;6.63;;;20.70;72.70;;;;;;5115136;28;20026;-74
2021/08/24 18:22:04;;;;;;;9.98;6.30;;;20.70;73.20;;;;;;5131547;28;20031;-74
2021/08/24 18:24:32;;;;;;;12.23;5.82;;;20.70;73.20;;;;;;5132079;28;20023;-74
2021/08/24 18:27:01;;;;;;;11.23;6.03;;;20.70;73.00;;;;;;5131891;28;20023;-74
2021/08/24 18:29:27;;;;;;;14.25;6.57;;;20.80;73.60;;;;;;5121686;28;20027;-74
2021/08/24 18:31:53;;;;;;;10.02;6.63;;;20.80;73.70;;;;;;5111203;28;20024;-74
2021/08/24 18:34:19;;;;;;;10.35;6.82;;;20.80;73.90;;;;;;5108882;28;20035;-74
2021/08/24 18:36:44;;;;;;;10.95;6.75;;;20.80;74.10;;;;;;5110741;28;20492;-74
2021/08/24 18:39:11;;;;;;;10.98;7.07;;;20.80;74.80;;;;;;5103654;28;20021;-74
2021/08/24 18:41:41;;;;;;;10.43;6.03;;;20.70;75.10;;;;;;5090903;28;20035;-74
2021/08/24 18:44:08;;;;;;;8.18;6.07;;;20.70;75.40;;;;;;5090388;28;20027;-74
2021/08/24 18:46:35;;;;;;;10.15;6.20;;;20.70;75.70;;;;;;5090399;28;20024;-74
2021/08/24 18:49:01;;;;;;;13.05;6.28;;;20.70;75.80;;;;;;5106269;28;20023;-74
2021/08/24 18:53:59;;;;;;;14.45;9.70;;;20.70;75.60;;;;;;5071622;28;20380;-72
2021/08/24 18:56:26;;;;;;;17.08;11.20;;;20.60;76.70;;;;;;5070193;28;20509;-72
2021/08/24 18:58:53;;;;;;;13.43;9.00;;;20.60;77.20;;;;;;5061301;28;20021;-74
2021/08/24 19:01:24;;;;;;;16.27;8.15;;;20.60;77.60;;;;;;5053022;28;20021;-74
2021/08/24 19:03:51;;;;;;;12.50;8.15;;;20.60;77.80;;;;;;5066360;28;20043;-74
2021/08/24 19:06:19;;;;;;;12.60;7.75;;;20.60;78.20;;;;;;5089528;28;20028;-74
2021/08/24 19:08:46;;;;;;;12.20;7.78;;;20.60;78.60;;;;;;5078507;28;20497;-76
2021/08/24 19:11:15;;;;;;;15.00;8.65;;;20.60;79.10;;;;;;5070758;28;20033;-74
2021/08/24 19:13:41;;;;;;;17.35;8.45;;;20.50;79.80;;;;;;5071014;28;20028;-74
2021/08/24 19:16:13;;;;;;;18.15;9.82;;;20.50;80.10;;;;;;5071069;28;20017;-74
2021/08/24 19:18:39;;;;;;;13.18;8.98;;;20.50;81.40;;;;;;5070946;28;20028;-74
2021/08/24 19:21:04;;;;;;;15.48;9.77;;;20.50;81.40;;;;;;5075003;28;20029;-74
2021/08/24 19:23:34;;;;;;;14.75;9.70;;;20.50;82.00;;;;;;5070400;28;20021;-74
2021/08/24 19:26:01;;;;;;;14.57;9.37;;;20.40;82.60;;;;;;5053839;28;20036;-74
2021/08/24 19:28:27;;;;;;;16.38;10.20;;;20.40;83.40;;;;;;5050931;28;20313;-74
2021/08/24 19:30:53;;;;;;;16.10;10.77;;;20.40;84.00;;;;;;5051356;28;20107;-74
2021/08/24 19:33:19;;;;;;;15.95;10.90;;;20.40;84.60;;;;;;5050497;28;20055;-74
2021/08/24 19:35:46;;;;;;;15.32;11.43;;;20.40;85.20;;;;;;5050663;28;20468;-74
2021/08/24 19:38:12;;;;;;;21.17;13.18;;;20.40;86.00;;;;;;5050217;28;20432;-74
2021/08/24 19:40:38;;;;;;;21.80;13.13;;;20.30;86.50;;;;;;5050207;28;20060;-74
2021/08/24 19:43:04;;;;;;;21.05;13.93;;;20.30;87.40;;;;;;5066294;28;20056;-74
2021/08/24 19:45:33;;;;;;;24.15;15.82;;;20.30;88.00;;;;;;5070510;28;20095;-74
2021/08/24 19:47:59;;;;;;;30.92;19.27;;;20.30;89.40;;;;;;5070502;28;20036;-74
2021/08/24 19:50:27;;;;;;;36.13;21.15;;;20.30;89.50;;;;;;5069743;28;20024;-74
2021/08/24 19:52:53;;;;;;;36.58;22.23;;;20.30;89.90;;;;;;5069574;28;20044;-74
2021/08/24 19:55:39;;;;;;;35.03;21.98;;;20.30;90.10;;;;;;5069970;28;20028;-74
2021/08/24 19:58:05;;;;;;;34.55;21.80;;;20.30;90.10;;;;;;5051559;28;20064;-74
2021/08/24 20:00:30;;;;;;;39.85;23.48;;;20.30;90.30;;;;;;5050469;28;20021;-74
2021/08/24 20:02:56;;;;;;;35.13;21.52;;;20.30;90.40;;;;;;5049644;28;20121;-74
2021/08/24 20:05:25;;;;;;;32.78;22.20;;;20.30;90.50;;;;;;5036446;28;20491;-74
2021/08/24 20:07:51;;;;;;;33.85;21.05;;;20.30;90.60;;;;;;5052499;28;20391;-74
2021/08/24 20:10:17;;;;;;;29.38;19.02;;;20.20;90.70;;;;;;5056368;28;20025;-74
2021/08/24 20:12:43;;;;;;;31.60;19.75;;;20.20;90.90;;;;;;5056134;28;20029;-74
2021/08/24 20:15:09;;;;;;;31.65;18.77;;;20.20;91.00;;;;;;5056874;28;20431;-74
2021/08/24 20:17:35;;;;;;;31.42;19.17;;;20.10;91.10;;;;;;5056526;28;20366;-74
2021/08/24 20:20:01;;;;;;;29.73;19.15;;;20.10;91.20;;;;;;5056147;28;20092;-74
2021/08/24 20:22:29;;;;;;;30.70;19.58;;;20.10;91.30;;;;;;5044306;28;20108;-74
2021/08/24 20:24:55;;;;;;;29.50;18.65;;;20.00;91.50;;;;;;5036923;28;20036;-74
2021/08/24 20:27:20;;;;;;;32.05;19.48;;;20.00;91.60;;;;;;5036332;28;20035;-74
2021/08/24 20:29:46;;;;;;;28.48;18.15;;;20.00;91.60;;;;;;5036573;28;20037;-74
2021/08/24 20:32:12;;;;;;;30.40;18.80;;;20.00;91.70;;;;;;5035990;28;20065;-74
2021/08/24 20:34:37;;;;;;;32.45;19.38;;;20.00;91.70;;;;;;5036096;28;20021;-74
2021/08/24 20:37:04;;;;;;;30.00;19.67;;;19.90;91.80;;;;;;5036004;28;20498;-74
2021/08/24 20:39:30;;;;;;;29.83;18.48;;;19.90;91.80;;;;;;5036191;28;20056;-74
2021/08/24 20:41:56;;;;;;;29.23;18.77;;;19.90;91.80;;;;;;5037213;28;20033;-74
2021/08/24 20:44:21;;;;;;;32.38;20.67;;;19.90;91.80;;;;;;5035719;28;20117;-74
2021/08/24 20:46:48;;;;;;;28.52;19.17;;;19.80;91.80;;;;;;5035993;28;20091;-73
2021/08/24 20:49:14;;;;;;;30.83;19.52;;;19.80;91.70;;;;;;5035811;28;20061;-73
2021/08/24 20:51:41;;;;;;;29.88;18.85;;;19.80;91.80;;;;;;5035460;28;20029;-73
2021/08/24 20:54:07;;;;;;;29.40;19.27;;;19.70;91.80;;;;;;5035783;28;20020;-73
2021/08/24 20:56:33;;;;;;;32.65;20.25;;;19.70;91.90;;;;;;5036006;28;20026;-73
2021/08/24 20:58:58;;;;;;;27.58;19.30;;;19.70;91.90;;;;;;5050659;28;20028;-73
2021/08/24 21:01:46;;;;;;;33.97;21.08;;;19.70;92.00;;;;;;5055755;28;20483;-73
2021/08/24 21:04:13;;;;;;;32.60;20.10;;;19.70;92.00;;;;;;5055519;28;20386;-73
2021/08/24 21:06:42;;;;;;;32.50;21.17;;;19.60;92.30;;;;;;5055466;28;20459;-73
2021/08/24 21:09:09;;;;;;;33.38;20.50;;;19.50;92.40;;;;;;5055455;28;20028;-73
2021/08/24 21:11:36;;;;;;;39.50;20.95;;;19.50;92.50;;;;;;5055027;28;20021;-74
2021/08/24 21:14:03;;;;;;;33.88;20.05;;;19.50;92.60;;;;;;5039517;28;20036;-73
2021/08/24 21:16:29;;;;;;;34.03;19.58;;;19.50;92.70;;;;;;5034148;28;20401;-73
2021/08/24 21:18:55;;;;;;;29.05;19.08;;;19.40;92.80;;;;;;5035112;28;20029;-73
2021/08/24 21:21:22;;;;;;;32.72;19.33;;;19.40;92.90;;;;;;5035499;28;20022;-73
2021/08/24 21:23:49;;;;;;;32.15;18.75;;;19.40;92.90;;;;;;5035567;28;20022;-73
2021/08/24 21:26:15;;;;;;;30.38;19.02;;;19.40;92.90;;;;;;5034937;28;20053;-73
2021/08/24 21:28:41;;;;;;;28.10;19.00;;;19.30;92.70;;;;;;5046560;28;20021;-73
2021/08/24 21:31:06;;;;;;;32.70;19.02;;;19.40;92.90;;;;;;5055125;28;20464;-73
2021/08/24 21:33:32;;;;;;;28.60;18.63;;;19.30;92.90;;;;;;5054999;28;20485;-73
2021/08/24 21:36:09;;;;;;;29.40;19.13;;;19.30;92.90;;;;;;5055144;28;20329;-73
2021/08/24 21:38:36;;;;;;;31.27;19.38;;;19.20;93.00;;;;;;5054521;28;20067;-73
2021/08/24 21:41:05;;;;;;;31.05;19.60;;;19.20;93.20;;;;;;5054588;28;20025;-73
2021/08/24 21:43:33;;;;;;;37.25;20.58;;;19.20;93.30;;;;;;5044590;28;20032;-73
2021/08/24 21:46:00;;;;;;;34.80;21.17;;;19.20;93.40;;;;;;5049684;28;20025;-73
2021/08/24 21:48:26;;;;;;;33.92;20.90;;;19.10;93.60;;;;;;5054530;28;20378;-73
2021/08/24 21:50:54;;;;;;;36.63;21.35;;;19.10;93.70;;;;;;5053670;28;20426;-73
2021/08/24 21:53:20;;;;;;;32.35;22.35;;;19.10;93.90;;;;;;5054094;28;20069;-73
2021/08/24 21:55:52;;;;;;;33.45;20.73;;;19.10;94.00;;;;;;5052969;28;20438;-73
2021/08/24 21:58:21;;;;;;;35.38;20.55;;;19.10;94.10;;;;;;5034481;28;20136;-73
2021/08/24 22:00:48;;;;;;;33.13;20.67;;;19.00;94.20;;;;;;5034687;28;20029;-73
2021/08/24 22:03:14;;;;;;;33.85;20.13;;;19.00;94.30;;;;;;5034421;28;20430;-73
2021/08/24 22:05:42;;;;;;;30.92;20.65;;;18.90;94.40;;;;;;5034873;28;20033;-73
2021/08/24 22:08:13;;;;;;;29.02;20.15;;;18.90;94.50;;;;;;5034188;28;20053;-73
2021/08/24 22:10:40;;;;;;;32.67;20.52;;;18.90;94.70;;;;;;5034683;28;20456;-73
2021/08/24 22:13:07;;;;;;;32.88;18.88;;;18.90;94.70;;;;;;5052655;28;20083;-73
2021/08/24 22:15:34;;;;;;;31.63;18.70;;;18.80;94.70;;;;;;5054076;28;20463;-73
2021/08/24 22:18:00;;;;;;;32.40;19.65;;;18.80;94.60;;;;;;5054069;28;20105;-73
2021/08/24 22:20:33;;;;;;;27.83;18.27;;;18.80;94.60;;;;;;5054532;28;20017;-73
2021/08/24 22:23:00;;;;;;;35.10;20.17;;;18.80;94.70;;;;;;5053883;28;20044;-73
2021/08/24 22:25:28;;;;;;;29.42;20.33;;;18.80;94.80;;;;;;5053791;28;20029;-73
2021/08/24 22:27:55;;;;;;;30.08;18.35;;;18.80;94.70;;;;;;5036876;28;20464;-73
2021/08/24 22:30:23;;;;;;;27.65;17.83;;;18.70;94.80;;;;;;5034381;28;20088;-73
2021/08/24 22:33:03;;;;;;;30.63;19.25;;;18.70;94.80;;;;;;5033887;28;20535;-73
2021/08/24 22:36:08;;;;;;;32.78;19.38;;;18.70;94.80;;;;;;5037579;28;20070;-73
2021/08/24 22:38:45;;;;;;;30.65;18.55;;;18.70;94.80;;;;;;5042702;28;20037;-73
2021/08/24 22:41:14;;;;;;;29.67;18.52;;;18.70;95.00;;;;;;5053799;28;20021;-73
2021/08/24 22:43:45;;;;;;;34.17;18.92;;;18.70;95.10;;;;;;5053582;28;20028;-73
2021/08/24 22:46:15;;;;;;;29.95;18.73;;;18.60;95.10;;;;;;5053719;28;20017;-73
2021/08/24 22:48:45;;;;;;;29.15;17.85;;;18.60;95.20;;;;;;5054070;28;20024;-73
2021/08/24 22:51:13;;;;;;;27.75;18.98;;;18.60;95.20;;;;;;5044316;28;20506;-73
2021/08/24 22:53:39;;;;;;;30.15;18.48;;;18.60;95.30;;;;;;5033206;28;20049;-73
2021/08/24 22:56:06;;;;;;;33.47;19.00;;;18.70;95.40;;;;;;5033587;28;20021;-73
2021/08/24 22:58:32;;;;;;;27.40;17.77;;;18.60;95.40;;;;;;5033523;28;20021;-73
2021/08/24 23:00:58;;;;;;;27.98;18.40;;;18.60;95.40;;;;;;5033604;28;20033;-73
2021/08/24 23:03:24;;;;;;;24.92;17.60;;;18.60;95.40;;;;;;5033701;28;20033;-73
2021/08/24 23:05:49;;;;;;;29.30;18.35;;;18.60;95.40;;;;;;5039304;28;20130;-73
2021/08/24 23:08:15;;;;;;;28.80;18.30;;;18.60;95.50;;;;;;5050228;28;20033;-73